createdAt,value
2018-07-27T00:00:40.885Z,12.67
2018-07-27T00:03:08.775Z,12.33
2018-07-27T00:05:36.644Z,11.87
2018-07-27T00:08:04.625Z,11.67
2018-07-27T00:10:32.525Z,11.27
2018-07-27T00:13:00.395Z,11.70
2018-07-27T00:15:28.277Z,11.37
2018-07-27T00:17:56.166Z,11.30
2018-07-27T00:20:23.981Z,10.37
2018-07-27T00:22:51.908Z,9.67
2018-07-27T00:25:19.737Z,9.97
2018-07-27T00:27:47.637Z,9.63
2018-07-27T00:30:15.506Z,9.97
2018-07-27T00:32:43.397Z,9.53
2018-07-27T00:35:11.240Z,9.37
2018-07-27T00:37:39.094Z,9.73
2018-07-27T00:40:06.959Z,10.03
2018-07-27T00:42:34.830Z,9.70
2018-07-27T00:45:02.690Z,9.37
2018-07-27T00:47:30.609Z,9.00
2018-07-27T00:49:58.430Z,9.30
2018-07-27T00:52:26.246Z,9.17
2018-07-27T00:54:54.179Z,8.87
2018-07-27T00:57:22.057Z,8.97
2018-07-27T00:59:49.905Z,8.70
2018-07-27T01:02:17.797Z,8.77
2018-07-27T01:04:45.641Z,8.03
2018-07-27T01:07:13.514Z,7.97
2018-07-27T01:09:41.409Z,7.53
2018-07-27T01:12:09.279Z,7.63
2018-07-27T01:14:37.099Z,8.00
2018-07-27T01:17:04.959Z,7.90
2018-07-27T01:19:32.844Z,7.60
2018-07-27T01:22:00.785Z,7.87
2018-07-27T01:24:28.638Z,7.77
2018-07-27T01:26:56.508Z,7.60
2018-07-27T01:29:24.372Z,8.00
2018-07-27T01:31:52.199Z,7.17
2018-07-27T01:34:20.079Z,7.90
2018-07-27T01:36:47.910Z,7.53
2018-07-27T01:39:15.740Z,7.80
2018-07-27T01:41:43.773Z,7.33
2018-07-27T01:44:11.892Z,8.00
2018-07-27T01:46:40.377Z,7.50
2018-07-27T01:49:09.010Z,7.73
2018-07-27T01:51:36.848Z,7.90
2018-07-27T01:54:04.852Z,7.93
2018-07-27T01:56:32.915Z,7.30
2018-07-27T01:59:00.856Z,8.03
2018-07-27T02:01:28.693Z,9.00
2018-07-27T02:03:56.563Z,8.70
2018-07-27T02:06:24.465Z,7.87
2018-07-27T02:08:52.305Z,8.03
2018-07-27T02:11:20.173Z,8.13
2018-07-27T02:13:48.041Z,8.03
2018-07-27T02:16:15.870Z,8.63
2018-07-27T02:18:43.727Z,8.23
2018-07-27T02:21:11.540Z,9.67
2018-07-27T02:23:41.418Z,9.04
2018-07-27T02:26:09.231Z,11.17
2018-07-27T02:28:37.109Z,11.90
2018-07-27T02:31:05.141Z,10.70
2018-07-27T02:33:32.996Z,13.37
2018-07-27T02:36:00.918Z,12.37
2018-07-27T02:38:28.777Z,8.77
2018-07-27T02:40:56.604Z,8.40
2018-07-27T02:43:24.434Z,8.33
2018-07-27T02:45:52.270Z,8.30
2018-07-27T02:48:20.138Z,8.77
2018-07-27T02:50:47.961Z,8.17
2018-07-27T02:53:15.803Z,8.10
2018-07-27T02:55:43.658Z,8.70
2018-07-27T02:58:11.514Z,8.20
2018-07-27T03:00:39.384Z,8.80
2018-07-27T03:03:07.265Z,8.93
2018-07-27T03:05:35.086Z,8.43
2018-07-27T03:08:02.931Z,8.03
2018-07-27T03:10:30.846Z,8.47
2018-07-27T03:12:58.748Z,8.73
2018-07-27T03:15:26.635Z,8.17
2018-07-27T03:17:54.558Z,8.70
2018-07-27T03:20:22.441Z,8.37
2018-07-27T03:22:50.305Z,8.33
2018-07-27T03:25:18.214Z,8.37
2018-07-27T03:27:46.089Z,7.30
2018-07-27T03:30:14.061Z,7.70
2018-07-27T03:32:41.943Z,7.80
2018-07-27T03:35:09.792Z,7.30
2018-07-27T03:37:37.754Z,7.47
2018-07-27T03:40:05.725Z,7.80
2018-07-27T03:42:33.579Z,8.23
2018-07-27T03:45:01.431Z,7.97
2018-07-27T03:47:29.293Z,7.30
2018-07-27T03:49:57.167Z,7.70
2018-07-27T03:52:24.982Z,8.50
2018-07-27T03:54:52.802Z,7.50
2018-07-27T03:57:20.639Z,7.63
2018-07-27T03:59:48.497Z,7.63
2018-07-27T04:02:16.579Z,7.97
2018-07-27T04:04:44.438Z,8.50
2018-07-27T04:07:12.337Z,8.27
2018-07-27T04:09:40.249Z,8.33
2018-07-27T04:12:08.144Z,7.97
2018-07-27T04:14:36.044Z,7.80
2018-07-27T04:17:03.905Z,8.13
2018-07-27T04:19:31.786Z,7.53
2018-07-27T04:21:59.929Z,7.83
2018-07-27T04:24:27.784Z,7.53
2018-07-27T04:26:55.626Z,7.93
2018-07-27T04:29:23.473Z,7.73
2018-07-27T04:31:51.382Z,6.33
2018-07-27T04:34:19.275Z,6.30
2018-07-27T04:36:47.244Z,6.90
2018-07-27T04:39:15.111Z,6.23
2018-07-27T04:41:42.951Z,5.90
2018-07-27T04:44:10.778Z,6.47
2018-07-27T04:46:38.690Z,5.57
2018-07-27T04:49:06.535Z,5.50
2018-07-27T04:51:34.394Z,5.97
2018-07-27T04:54:02.236Z,5.40
2018-07-27T04:56:30.131Z,5.97
2018-07-27T04:58:58.006Z,6.23
2018-07-27T05:01:25.894Z,6.93
2018-07-27T05:03:55.510Z,5.74
2018-07-27T05:06:23.420Z,5.53
2018-07-27T05:08:56.786Z,5.77
2018-07-27T05:11:24.643Z,7.23
2018-07-27T05:13:52.532Z,8.20
2018-07-27T05:16:20.412Z,8.20
2018-07-27T05:18:48.277Z,8.47
2018-07-27T05:21:16.135Z,9.20
2018-07-27T05:23:43.965Z,8.30
2018-07-27T05:26:11.818Z,9.30
2018-07-27T05:28:39.675Z,9.27
2018-07-27T05:31:07.537Z,8.47
2018-07-27T05:33:35.355Z,7.03
2018-07-27T05:36:03.282Z,6.93
2018-07-27T05:38:31.126Z,6.70
2018-07-27T05:40:58.986Z,7.63
2018-07-27T05:43:26.849Z,7.43
2018-07-27T05:45:54.690Z,6.90
2018-07-27T05:48:22.528Z,7.87
2018-07-27T05:50:50.389Z,8.33
2018-07-27T05:53:18.290Z,7.33
2018-07-27T05:55:46.104Z,7.17
2018-07-27T05:58:13.949Z,7.57
2018-07-27T06:00:41.766Z,6.93
2018-07-27T06:03:09.695Z,9.40
2018-07-27T06:05:37.570Z,8.33
2018-07-27T06:08:05.453Z,8.57
2018-07-27T06:10:33.372Z,9.30
2018-07-27T06:13:01.341Z,9.90
2018-07-27T06:15:29.193Z,10.33
2018-07-27T06:17:57.084Z,10.03
2018-07-27T06:20:24.909Z,9.73
2018-07-27T06:22:52.829Z,9.60
2018-07-27T06:25:20.721Z,9.17
2018-07-27T06:27:48.587Z,9.27
2018-07-27T06:30:16.523Z,8.93
2018-07-27T06:32:44.368Z,8.53
2018-07-27T06:35:12.272Z,9.17
2018-07-27T06:37:40.195Z,9.13
2018-07-27T06:40:08.095Z,9.30
2018-07-27T06:42:35.933Z,10.13
2018-07-27T06:45:05.098Z,10.70
2018-07-27T06:47:32.989Z,10.07
2018-07-27T06:50:00.853Z,9.47
2018-07-27T06:52:28.764Z,9.93
2018-07-27T06:54:56.621Z,9.97
2018-07-27T06:57:24.474Z,10.40
2018-07-27T06:59:52.325Z,10.37
2018-07-27T07:02:20.162Z,8.87
2018-07-27T07:04:48.024Z,8.23
2018-07-27T07:07:15.907Z,8.90
2018-07-27T07:09:43.710Z,8.90
2018-07-27T07:12:11.537Z,9.40
2018-07-27T07:14:39.373Z,10.43
2018-07-27T07:17:07.268Z,9.37
2018-07-27T07:19:35.121Z,10.00
2018-07-27T07:22:03.006Z,10.07
2018-07-27T07:24:30.841Z,10.50
2018-07-27T07:26:58.694Z,9.47
2018-07-27T07:29:26.527Z,10.10
2018-07-27T07:31:54.396Z,9.47
2018-07-27T07:34:22.230Z,9.53
2018-07-27T07:36:50.083Z,9.40
2018-07-27T07:39:17.957Z,9.80
2018-07-27T07:41:45.816Z,9.03
2018-07-27T07:44:13.675Z,9.17
2018-07-27T07:46:41.549Z,9.47
2018-07-27T07:49:09.452Z,9.33
2018-07-27T07:51:37.858Z,9.37
2018-07-27T07:54:05.855Z,9.93
2018-07-27T07:56:33.990Z,9.37
2018-07-27T07:59:02.219Z,9.03
2018-07-27T08:01:30.244Z,8.23
2018-07-27T08:03:58.122Z,8.50
2018-07-27T08:06:26.018Z,9.70
2018-07-27T08:08:54.454Z,9.03
2018-07-27T08:11:22.313Z,8.10
2018-07-27T08:13:50.241Z,8.03
2018-07-27T08:16:18.128Z,7.50
2018-07-27T08:18:45.989Z,7.27
2018-07-27T08:21:14.306Z,7.77
2018-07-27T08:23:42.276Z,7.33
2018-07-27T08:26:34.437Z,6.87
2018-07-27T08:29:02.505Z,6.80
2018-07-27T08:31:31.013Z,7.90
2018-07-27T08:33:58.861Z,7.20
2018-07-27T08:36:27.484Z,7.80
2018-07-27T08:38:55.675Z,8.00
2018-07-27T08:41:23.937Z,6.93
2018-07-27T08:43:52.433Z,7.30
2018-07-27T08:46:20.646Z,7.63
2018-07-27T08:48:48.740Z,8.00
2018-07-27T08:51:16.922Z,7.07
2018-07-27T08:53:45.053Z,8.07
2018-07-27T08:56:13.251Z,7.90
2018-07-27T08:58:41.363Z,8.03
2018-07-27T09:01:09.561Z,8.68
2018-07-27T09:03:37.718Z,9.20
2018-07-27T09:06:06.126Z,8.40
2018-07-27T09:08:34.232Z,8.70
2018-07-27T09:11:02.313Z,8.33
2018-07-27T09:13:30.601Z,9.07
2018-07-27T09:15:58.719Z,9.07
2018-07-27T09:18:26.876Z,8.40
2018-07-27T09:20:55.032Z,8.37
2018-07-27T09:23:23.196Z,8.03
2018-07-27T09:25:51.296Z,8.10
2018-07-27T09:28:19.387Z,6.90
2018-07-27T09:30:47.546Z,7.20
2018-07-27T09:33:16.011Z,6.60
2018-07-27T09:35:44.178Z,7.10
2018-07-27T09:38:12.269Z,7.60
2018-07-27T09:40:40.383Z,7.67
2018-07-27T09:43:08.454Z,7.10
2018-07-27T09:45:36.581Z,7.17
2018-07-27T09:48:04.794Z,6.70
2018-07-27T09:50:32.933Z,6.80
2018-07-27T09:53:01.018Z,5.87
2018-07-27T09:55:29.117Z,6.53
2018-07-27T09:57:57.206Z,6.47
2018-07-27T10:00:31.006Z,6.83
2018-07-27T10:02:59.129Z,6.27
2018-07-27T10:05:27.216Z,6.57
2018-07-27T10:07:55.357Z,6.90
2018-07-27T10:10:23.483Z,7.07
2018-07-27T10:12:51.895Z,7.10
2018-07-27T10:15:20.001Z,6.10
2018-07-27T10:17:48.558Z,6.23
2018-07-27T10:20:16.715Z,5.63
2018-07-27T10:22:44.857Z,6.23
2018-07-27T10:25:12.925Z,5.77
2018-07-27T10:27:41.134Z,5.20
2018-07-27T10:30:09.261Z,5.63
2018-07-27T10:32:37.455Z,5.57
2018-07-27T10:35:05.573Z,5.53
2018-07-27T10:37:33.769Z,5.73
2018-07-27T10:40:01.910Z,5.33
2018-07-27T10:42:30.105Z,6.10
2018-07-27T10:44:58.284Z,5.63
2018-07-27T10:47:26.457Z,6.10
2018-07-27T10:49:54.543Z,6.05
2018-07-27T10:52:22.726Z,5.67
2018-07-27T10:54:50.910Z,4.80
2018-07-27T10:57:19.054Z,6.07
2018-07-27T10:59:47.237Z,5.87
2018-07-27T11:02:15.416Z,6.00
2018-07-27T11:04:43.546Z,6.23
2018-07-27T11:07:11.705Z,6.07
2018-07-27T11:09:39.868Z,5.83
2018-07-27T11:12:08.061Z,6.60
2018-07-27T11:14:37.062Z,6.10
2018-07-27T11:17:05.172Z,6.33
2018-07-27T11:19:33.675Z,6.03
2018-07-27T11:22:01.781Z,6.00
2018-07-27T11:24:29.893Z,6.33
2018-07-27T11:26:58.013Z,6.40
2018-07-27T11:29:26.186Z,5.53
2018-07-27T11:31:54.493Z,5.97
2018-07-27T11:34:22.605Z,5.27
2018-07-27T11:36:50.723Z,5.37
2018-07-27T11:39:18.862Z,5.97
2018-07-27T11:41:47.495Z,5.23
2018-07-27T11:44:15.685Z,5.70
2018-07-27T11:46:43.746Z,5.70
2018-07-27T11:49:11.936Z,6.20
2018-07-27T11:51:39.995Z,5.77
2018-07-27T11:54:08.206Z,5.97
2018-07-27T11:56:36.286Z,6.20
2018-07-27T11:59:04.511Z,5.53
2018-07-27T12:01:32.656Z,6.30
2018-07-27T12:04:00.761Z,6.17
2018-07-27T12:06:29.041Z,5.80
2018-07-27T12:08:57.169Z,6.27
2018-07-27T12:11:25.318Z,5.73
2018-07-27T12:13:53.432Z,5.43
2018-07-27T12:16:21.566Z,5.30
2018-07-27T12:18:49.679Z,6.07
2018-07-27T12:21:17.913Z,4.93
2018-07-27T12:23:46.005Z,5.60
2018-07-27T12:26:14.110Z,5.73
2018-07-27T12:28:42.189Z,6.30
2018-07-27T12:31:10.296Z,5.77
2018-07-27T12:33:38.357Z,6.33
2018-07-27T12:36:06.611Z,6.23
2018-07-27T12:38:35.083Z,5.93
2018-07-27T12:41:03.168Z,5.80
2018-07-27T12:43:31.292Z,5.80
2018-07-27T12:45:59.348Z,5.87
2018-07-27T12:48:27.292Z,5.97
2018-07-27T12:50:55.288Z,5.83
2018-07-27T12:53:23.143Z,5.87
2018-07-27T12:55:51.028Z,5.97
2018-07-27T12:58:18.896Z,5.40
2018-07-27T13:00:46.749Z,5.77
2018-07-27T13:03:14.635Z,5.77
2018-07-27T13:05:42.537Z,5.53
2018-07-27T13:08:10.416Z,5.23
2018-07-27T13:10:38.242Z,5.50
2018-07-27T13:13:06.128Z,5.17
2018-07-27T13:15:33.970Z,5.40
2018-07-27T13:18:02.172Z,4.50
2018-07-27T13:20:41.187Z,5.10
2018-07-27T13:23:09.112Z,4.80
2018-07-27T13:25:36.919Z,4.83
2018-07-27T13:30:32.755Z,4.30
2018-07-27T13:35:28.323Z,4.17
2018-07-27T13:37:56.186Z,3.90
2018-07-27T13:40:24.033Z,4.10
2018-07-27T13:42:52.041Z,3.80
2018-07-27T13:45:20.041Z,4.30
2018-07-27T13:47:48.062Z,4.43
2018-07-27T13:50:15.992Z,3.80
2018-07-27T13:52:43.997Z,4.00
2018-07-27T13:55:11.935Z,5.00
2018-07-27T13:57:39.842Z,4.50
2018-07-27T14:00:07.867Z,4.30
2018-07-27T14:02:35.802Z,4.70
2018-07-27T14:05:03.855Z,4.77
2018-07-27T14:07:31.955Z,4.60
2018-07-27T14:09:59.980Z,4.97
2018-07-27T14:12:27.989Z,4.73
2018-07-27T14:14:55.944Z,4.33
2018-07-27T14:17:23.790Z,4.13
2018-07-27T14:19:51.637Z,4.60
2018-07-27T14:22:19.476Z,4.77
2018-07-27T14:24:47.290Z,4.83
2018-07-27T14:27:15.115Z,4.40
2018-07-27T14:29:43.138Z,4.77
2018-07-27T14:32:10.977Z,5.00
2018-07-27T14:34:38.785Z,5.70
2018-07-27T14:37:06.662Z,5.50
2018-07-27T14:39:34.523Z,5.70
2018-07-27T14:42:02.506Z,5.63
2018-07-27T14:44:30.434Z,6.17
2018-07-27T14:46:58.225Z,6.20
2018-07-27T14:49:26.049Z,5.50
2018-07-27T14:51:53.914Z,6.40
2018-07-27T14:54:21.742Z,5.80
2018-07-27T14:56:49.570Z,6.00
2018-07-27T14:59:17.697Z,6.30
2018-07-27T15:01:45.547Z,6.90
2018-07-27T15:04:13.390Z,6.97
2018-07-27T15:06:41.300Z,6.77
2018-07-27T15:09:13.133Z,7.00
2018-07-27T15:11:41.614Z,6.03
2018-07-27T15:14:09.534Z,7.53
2018-07-27T15:16:37.494Z,6.40
2018-07-27T15:19:05.379Z,4.87
2018-07-27T15:21:33.227Z,6.17
2018-07-27T15:24:01.143Z,5.10
2018-07-27T15:26:29.226Z,5.80
2018-07-27T15:28:57.218Z,5.30
2018-07-27T15:31:25.041Z,5.47
2018-07-27T15:33:52.912Z,5.50
2018-07-27T15:36:20.829Z,5.43
2018-07-27T15:38:48.700Z,5.40
2018-07-27T15:41:16.520Z,5.17
2018-07-27T15:43:44.389Z,5.40
2018-07-27T15:46:12.261Z,6.30
2018-07-27T15:48:40.142Z,6.33
2018-07-27T15:51:08.059Z,5.90
2018-07-27T15:53:35.897Z,5.83
2018-07-27T15:56:03.734Z,6.33
2018-07-27T15:58:31.613Z,6.13
2018-07-27T16:00:59.506Z,5.50
2018-07-27T16:03:27.369Z,6.33
2018-07-27T16:05:55.190Z,6.07
2018-07-27T16:08:23.022Z,6.13
2018-07-27T16:10:50.894Z,5.80
2018-07-27T16:13:18.741Z,7.50
2018-07-27T16:15:46.754Z,7.77
2018-07-27T16:18:14.645Z,5.40
2018-07-27T16:20:42.493Z,6.53
2018-07-27T16:23:10.369Z,6.27
2018-07-27T16:25:38.272Z,6.20
2018-07-27T16:28:06.090Z,6.63
2018-07-27T16:30:33.921Z,7.00
2018-07-27T16:33:01.924Z,6.73
2018-07-27T16:35:29.790Z,5.80
2018-07-27T16:37:57.789Z,6.00
2018-07-27T16:40:25.677Z,6.40
2018-07-27T16:42:53.509Z,6.43
2018-07-27T16:45:21.344Z,5.97
2018-07-27T16:47:49.400Z,6.40
2018-07-27T16:50:17.366Z,6.60
2018-07-27T16:52:45.227Z,7.47
2018-07-27T16:55:13.144Z,6.70
2018-07-27T16:57:41.020Z,6.50
2018-07-27T17:00:08.941Z,7.03
2018-07-27T17:02:36.797Z,7.30
2018-07-27T17:05:05.042Z,6.50
2018-07-27T17:07:32.999Z,7.13
2018-07-27T17:10:00.920Z,6.43
2018-07-27T17:12:28.782Z,7.60
2018-07-27T17:14:56.617Z,7.50
2018-07-27T17:17:24.535Z,7.93
2018-07-27T17:19:52.467Z,7.73
2018-07-27T17:22:20.368Z,8.87
2018-07-27T17:24:48.321Z,8.87
2018-07-27T17:27:16.226Z,8.83
2018-07-27T17:29:44.274Z,9.03
2018-07-27T17:32:12.172Z,9.13
2018-07-27T17:34:40.061Z,9.70
2018-07-27T17:37:08.008Z,9.93
2018-07-27T17:39:35.944Z,9.47
2018-07-27T17:42:03.875Z,9.93
2018-07-27T17:44:31.792Z,9.53
2018-07-27T17:47:00.719Z,8.53
2018-07-27T17:49:28.600Z,8.13
2018-07-27T17:51:56.497Z,8.07
2018-07-27T17:54:24.408Z,7.73
2018-07-27T17:56:52.256Z,9.87
2018-07-27T17:59:20.113Z,9.80
2018-07-27T18:01:48.079Z,9.43
2018-07-27T18:04:15.945Z,9.50
2018-07-27T18:06:43.877Z,10.43
2018-07-27T18:09:12.532Z,10.50
2018-07-27T18:11:40.352Z,9.63
2018-07-27T18:14:08.282Z,10.37
2018-07-27T18:16:36.166Z,10.27
2018-07-27T18:19:04.121Z,11.43
2018-07-27T18:21:32.062Z,12.27
2018-07-27T18:23:59.935Z,11.30
2018-07-27T18:26:27.833Z,13.13
2018-07-27T18:28:55.733Z,10.43
2018-07-27T18:31:23.632Z,11.37
2018-07-27T18:33:51.480Z,10.40
2018-07-27T18:36:19.338Z,10.33
2018-07-27T18:38:47.190Z,11.00
2018-07-27T18:41:15.059Z,10.63
2018-07-27T18:43:42.942Z,9.57
2018-07-27T18:46:10.810Z,9.87
2018-07-27T18:48:38.880Z,8.10
2018-07-27T18:51:06.810Z,9.10
2018-07-27T18:53:34.708Z,11.13
2018-07-27T18:56:02.546Z,10.33
2018-07-27T18:58:30.382Z,11.10
2018-07-27T19:00:58.224Z,10.87
2018-07-27T19:03:26.079Z,11.33
2018-07-27T19:05:53.934Z,13.23
2018-07-27T19:08:21.801Z,10.30
2018-07-27T19:10:49.695Z,10.67
2018-07-27T19:13:17.653Z,9.13
2018-07-27T19:15:45.576Z,10.07
2018-07-27T19:18:13.465Z,9.73
2018-07-27T19:20:41.304Z,11.00
2018-07-27T19:23:09.233Z,9.20
2018-07-27T19:25:37.097Z,9.47
2018-07-27T19:28:05.323Z,9.90
2018-07-27T19:30:33.252Z,10.30
2018-07-27T19:33:01.153Z,10.28
2018-07-27T19:35:29.025Z,9.33
2018-07-27T19:37:56.910Z,8.80
2018-07-27T19:40:24.824Z,8.53
2018-07-27T19:42:52.689Z,7.83
2018-07-27T19:45:20.603Z,7.70
2018-07-27T19:47:48.549Z,8.00
2018-07-27T19:50:16.423Z,8.00
2018-07-27T19:52:44.300Z,7.63
2018-07-27T19:55:12.155Z,8.60
2018-07-27T19:57:40.060Z,10.30
2018-07-27T20:00:08.221Z,10.03
2018-07-27T20:02:36.131Z,10.43
2018-07-27T20:05:04.184Z,10.70
2018-07-27T20:07:32.107Z,11.03
2018-07-27T20:09:59.999Z,11.30
2018-07-27T20:12:27.941Z,14.40
2018-07-27T20:14:55.824Z,11.90
2018-07-27T20:17:23.690Z,13.20
2018-07-27T20:19:51.569Z,11.47
2018-07-27T20:22:19.545Z,11.47
2018-07-27T20:24:47.445Z,12.13
2018-07-27T20:27:15.321Z,12.47
2018-07-27T20:29:43.189Z,12.03
2018-07-27T20:32:11.077Z,13.47
2018-07-27T20:34:38.953Z,13.70
2018-07-27T20:37:06.838Z,11.77
2018-07-27T20:39:34.708Z,12.80
2018-07-27T20:42:02.608Z,12.90
2018-07-27T20:44:30.497Z,11.13
2018-07-27T20:46:58.417Z,11.40
2018-07-27T20:49:26.269Z,10.80
2018-07-27T20:51:54.689Z,11.67
2018-07-27T20:54:22.592Z,10.80
2018-07-27T20:56:50.490Z,12.70
2018-07-27T20:59:18.418Z,14.80
2018-07-27T21:01:46.277Z,14.73
2018-07-27T21:04:14.169Z,13.57
2018-07-27T21:06:42.397Z,14.80
2018-07-27T21:09:11.364Z,14.60
2018-07-27T21:11:39.520Z,13.73
2018-07-27T21:14:07.701Z,12.80
2018-07-27T21:16:35.666Z,11.73
2018-07-27T21:19:03.625Z,11.87
2018-07-27T21:21:31.467Z,11.63
2018-07-27T21:23:59.344Z,12.23
2018-07-27T21:26:27.486Z,10.13
2018-07-27T21:28:55.340Z,10.33
2018-07-27T21:31:23.224Z,11.27
2018-07-27T21:33:51.076Z,9.40
2018-07-27T21:36:18.922Z,10.17
2018-07-27T21:38:46.753Z,11.00
2018-07-27T21:41:14.623Z,10.23
2018-07-27T21:43:42.503Z,9.97
2018-07-27T21:46:10.352Z,11.57
2018-07-27T21:48:38.246Z,11.57
2018-07-27T21:51:06.132Z,12.07
2018-07-27T21:53:34.056Z,12.70
2018-07-27T21:56:01.949Z,12.17
2018-07-27T21:58:29.844Z,11.53
2018-07-27T22:00:57.876Z,11.50
2018-07-27T22:03:25.786Z,11.93
2018-07-27T22:05:53.681Z,11.27
2018-07-27T22:08:21.583Z,11.27
2018-07-27T22:10:49.495Z,11.27
2018-07-27T22:13:17.357Z,11.57
2018-07-27T22:15:45.228Z,10.73
2018-07-27T22:18:13.073Z,10.63
2018-07-27T22:20:40.977Z,10.73
2018-07-27T22:23:08.808Z,11.20
2018-07-27T22:25:36.667Z,10.83
2018-07-27T22:28:04.580Z,10.87
2018-07-27T22:30:32.474Z,10.93
2018-07-27T22:33:00.333Z,11.70
2018-07-27T22:35:28.165Z,9.90
2018-07-27T22:37:55.982Z,9.67
2018-07-27T22:40:23.841Z,8.83
2018-07-27T22:42:51.680Z,9.77
2018-07-27T22:45:19.541Z,8.47
2018-07-27T22:47:47.345Z,9.67
2018-07-27T22:50:15.206Z,9.03
2018-07-27T22:52:43.038Z,9.93
2018-07-27T22:55:11.940Z,9.23
2018-07-27T22:57:40.869Z,9.07
2018-07-27T23:00:13.029Z,9.27
2018-07-27T23:02:41.388Z,9.43
2018-07-27T23:05:09.364Z,9.53
2018-07-27T23:07:37.733Z,8.63
2018-07-27T23:10:06.420Z,9.33
2018-07-27T23:12:34.261Z,8.00
2018-07-27T23:15:02.228Z,8.80
2018-07-27T23:17:30.123Z,9.23
2018-07-27T23:19:58.070Z,8.57
2018-07-27T23:22:26.023Z,8.13
2018-07-27T23:24:53.846Z,8.90
2018-07-27T23:27:21.765Z,8.00
2018-07-27T23:29:49.617Z,8.60
2018-07-27T23:32:17.442Z,8.20
2018-07-27T23:34:45.260Z,7.80
2018-07-27T23:37:13.081Z,8.10
2018-07-27T23:39:40.901Z,7.83
2018-07-27T23:42:08.775Z,8.00
2018-07-27T23:44:36.626Z,8.30
2018-07-27T23:47:04.498Z,8.13
2018-07-27T23:49:32.334Z,7.93
2018-07-27T23:52:00.338Z,8.77
2018-07-27T23:54:28.162Z,10.20
2018-07-27T23:56:55.986Z,10.43
2018-07-27T23:59:23.912Z,9.87
